Time;durP1;ratioP1;P1;durP2;ratioP2;P2;SDS_P1;SDS_P2;PMS_P1;PMS_P2;Temp;Humidity;BMP_temperature;BMP_pressure;BME280_temperature;BME280_humidity;BME280_pressure;Samples;Min_cycle;Max_cycle;Signal;HPM_P1;HPM_P2
2020/12/20 00:00:11;;;;;;;12.05;9.13;;;;;;;3.51;69.64;101653.94;695338;28;44398;-64
2020/12/20 00:00:32;;;;;;;13.45;9.20;;;;;;;3.52;69.55;101656.50;694254;28;44473;-64
2020/12/20 00:00:53;;;;;;;12.43;9.23;;;;;;;3.52;69.64;101653.84;695817;28;15668;-64
2020/12/20 00:01:14;;;;;;;11.93;9.05;;;;;;;3.51;69.51;101652.16;695905;28;46304;-64
2020/12/20 00:01:38;;;;;;;13.43;9.32;;;;;;;3.51;69.59;101653.94;691509;28;20552;-64
2020/12/20 00:01:59;;;;;;;12.35;9.00;;;;;;;3.51;69.58;101652.16;690216;28;69439;-64
2020/12/20 00:02:20;;;;;;;13.07;9.52;;;;;;;3.52;69.57;101656.50;690645;28;46465;-64
2020/12/20 00:02:46;;;;;;;14.68;9.63;;;;;;;3.54;69.58;101645.72;692202;28;23500;-64
2020/12/20 00:03:08;;;;;;;12.73;8.98;;;;;;;3.52;69.60;101647.66;687802;28;137703;-64
2020/12/20 00:03:29;;;;;;;12.30;9.27;;;;;;;3.46;69.72;101651.59;693333;28;44402;-64
2020/12/20 00:03:51;;;;;;;12.35;9.55;;;;;;;3.48;69.75;101654.16;696610;28;23413;-64
2020/12/20 00:04:13;;;;;;;14.18;9.55;;;;;;;3.41;69.89;101656.44;696219;28;21318;-64
2020/12/20 00:04:34;;;;;;;13.68;9.15;;;;;;;3.40;69.89;101647.56;695226;28;31207;-64
2020/12/20 00:04:55;;;;;;;12.68;9.13;;;;;;;3.39;69.96;101659.19;695196;28;21330;-63
2020/12/20 00:05:18;;;;;;;12.73;9.10;;;;;;;3.42;70.12;101650.13;695122;28;46215;-65
2020/12/20 00:05:39;;;;;;;13.40;9.32;;;;;;;3.43;70.06;101651.81;694758;28;69066;-64
2020/12/20 00:06:01;;;;;;;13.40;9.27;;;;;;;3.44;69.88;101653.53;696481;28;21562;-64
2020/12/20 00:06:22;;;;;;;11.80;8.55;;;;;;;3.47;69.75;101657.81;696474;28;1017;-64
2020/12/20 00:06:45;;;;;;;12.48;9.05;;;;;;;3.45;69.80;101649.03;694422;28;18540;-64
2020/12/20 00:07:07;;;;;;;12.35;9.18;;;;;;;3.46;69.61;101658.78;693198;28;68368;-64
2020/12/20 00:07:28;;;;;;;12.55;9.23;;;;;;;3.42;69.74;101652.81;693669;28;46434;-64
2020/12/20 00:07:50;;;;;;;13.57;9.32;;;;;;;3.43;69.70;101651.81;694420;28;23452;-64
2020/12/20 00:08:12;;;;;;;13.00;9.02;;;;;;;3.43;69.75;101658.03;694649;28;18309;-65
2020/12/20 00:08:33;;;;;;;12.93;9.00;;;;;;;3.45;69.77;101651.72;695060;28;23463;-64
2020/12/20 00:08:54;;;;;;;12.98;9.18;;;;;;;3.45;69.71;101655.25;696388;28;23070;-64
2020/12/20 00:09:18;;;;;;;11.85;8.65;;;;;;;3.42;69.82;101639.44;696293;28;17560;-64
2020/12/20 00:09:40;;;;;;;12.05;8.77;;;;;;;3.43;69.59;101652.69;693416;28;90731;-64
2020/12/20 00:10:01;;;;;;;12.50;9.35;;;;;;;3.44;69.75;101650.88;695465;28;21534;-65
2020/12/20 00:10:24;;;;;;;12.68;9.45;;;;;;;3.45;69.72;101657.06;696324;28;25001;-64
2020/12/20 00:10:46;;;;;;;12.05;9.18;;;;;;;3.42;69.96;101650.13;695595;28;45289;-64
2020/12/20 00:11:07;;;;;;;11.60;9.25;;;;;;;3.41;70.00;101651.09;695640;28;21705;-65
2020/12/20 00:11:28;;;;;;;12.32;9.50;;;;;;;3.42;69.85;101658.16;695105;28;45275;-65
2020/12/20 00:11:51;;;;;;;12.85;9.48;;;;;;;3.38;69.87;101648.63;696365;28;1273;-65
2020/12/20 00:12:13;;;;;;;11.95;9.15;;;;;;;3.40;69.91;101647.56;694868;28;39033;-64
2020/12/20 00:12:34;;;;;;;12.00;8.98;;;;;;;3.40;69.95;101641.34;695365;28;23027;-64
2020/12/20 00:12:55;;;;;;;12.32;9.00;;;;;;;3.36;70.06;101651.41;695250;28;46411;-64
2020/12/20 00:13:17;;;;;;;13.35;9.20;;;;;;;3.39;70.04;101653.03;695361;28;21553;-65
2020/12/20 00:13:38;;;;;;;12.50;9.25;;;;;;;3.40;70.08;101658.25;694118;28;45252;-65
2020/12/20 00:14:00;;;;;;;12.98;9.23;;;;;;;3.40;69.89;101652.03;694264;28;23453;-64
2020/12/20 00:14:27;;;;;;;12.43;9.02;;;;;;;3.41;69.90;101656.44;696752;28;21551;-65
2020/12/20 00:14:49;;;;;;;12.80;9.05;;;;;;;3.41;69.91;101656.44;692282;28;138009;-64
2020/12/20 00:15:10;;;;;;;12.10;8.88;;;;;;;3.41;69.66;101654.59;695912;28;22390;-65
2020/12/20 00:15:32;;;;;;;13.63;9.40;;;;;;;3.39;69.67;101656.53;693749;28;34647;-64
2020/12/20 00:15:53;;;;;;;13.38;9.18;;;;;;;3.40;69.66;101663.59;689632;28;46883;-64
2020/12/20 00:16:14;;;;;;;12.70;9.43;;;;;;;3.39;69.74;101656.53;690258;28;21553;-65
2020/12/20 00:16:36;;;;;;;12.10;8.82;;;;;;;3.39;69.79;101658.34;690887;28;22396;-65
2020/12/20 00:16:59;;;;;;;12.10;9.13;;;;;;;3.39;69.70;101658.34;688385;28;22415;-65
2020/12/20 00:17:21;;;;;;;12.05;8.75;;;;;;;3.34;69.88;101657.81;686478;28;92189;-65
2020/12/20 00:17:45;;;;;;;12.15;9.05;;;;;;;3.32;69.90;101654.41;690678;28;46310;-64
2020/12/20 00:18:06;;;;;;;12.23;9.00;;;;;;;3.33;69.86;101664.13;690492;28;91870;-65
2020/12/20 00:18:28;;;;;;;13.82;9.20;;;;;;;3.35;69.87;101665.72;693580;28;21533;-64
2020/12/20 00:18:49;;;;;;;12.93;9.15;;;;;;;3.35;69.96;101655.03;693568;28;44165;-65
2020/12/20 00:19:10;;;;;;;13.18;9.60;;;;;;;3.37;69.84;101652.25;696222;28;22854;-65
2020/12/20 00:19:33;;;;;;;12.27;9.40;;;;;;;3.37;70.00;101657.59;696151;28;22428;-65
2020/12/20 00:19:54;;;;;;;12.95;9.55;;;;;;;3.35;69.90;101655.03;693858;28;70312;-64
2020/12/20 00:20:15;;;;;;;13.75;9.43;;;;;;;3.37;69.92;101654.91;693196;28;22706;-65
2020/12/20 00:20:37;;;;;;;12.25;9.10;;;;;;;3.38;69.68;101652.16;693619;28;23501;-65
2020/12/20 00:20:58;;;;;;;13.45;9.40;;;;;;;3.36;69.97;101651.41;692150;28;45206;-64
2020/12/20 00:21:20;;;;;;;13.38;8.90;;;;;;;3.37;69.83;101661.13;693160;28;21558;-64
2020/12/20 00:21:41;;;;;;;14.32;9.20;;;;;;;3.38;69.84;101653.97;693011;28;37419;-64
2020/12/20 00:22:05;;;;;;;12.50;9.10;;;;;;;3.34;69.77;101655.13;693935;28;15999;-64
2020/12/20 00:22:27;;;;;;;13.60;9.73;;;;;;;3.34;69.85;101656.00;693387;28;90192;-64
2020/12/20 00:22:48;;;;;;;12.52;9.20;;;;;;;3.30;69.89;101659.00;696079;28;36980;-64
2020/12/20 00:23:09;;;;;;;13.02;9.10;;;;;;;3.32;70.01;101654.41;696163;28;22376;-65
2020/12/20 00:23:31;;;;;;;12.05;9.15;;;;;;;3.34;70.16;101649.78;696104;28;22338;-64
2020/12/20 00:23:52;;;;;;;12.60;9.43;;;;;;;3.35;69.90;101649.69;695920;28;21555;-64
2020/12/20 00:24:13;;;;;;;13.20;9.65;;;;;;;3.36;69.92;101650.56;695224;28;44288;-64
2020/12/20 00:24:35;;;;;;;12.60;9.30;;;;;;;3.32;70.00;101652.56;695939;28;22381;-64
2020/12/20 00:24:56;;;;;;;13.70;9.23;;;;;;;3.33;69.91;101646.28;693633;28;44386;-64
2020/12/20 00:25:18;;;;;;;13.98;9.32;;;;;;;3.34;69.83;101647.13;694594;28;22441;-64
2020/12/20 00:25:40;;;;;;;14.63;10.00;;;;;;;3.27;70.03;101645.88;694082;28;46339;-65
2020/12/20 00:26:02;;;;;;;12.13;9.68;;;;;;;3.24;70.09;101641.59;693630;28;44393;-65
2020/12/20 00:26:23;;;;;;;12.07;9.10;;;;;;;3.24;70.34;101646.91;693732;28;21624;-64
2020/12/20 00:26:44;;;;;;;14.50;9.60;;;;;;;3.27;70.33;101645.88;694307;28;45251;-64
2020/12/20 00:27:06;;;;;;;13.57;9.65;;;;;;;3.25;70.31;101643.31;696372;28;21554;-65
2020/12/20 00:27:28;;;;;;;11.88;8.70;;;;;;;3.23;70.42;101643.41;695521;28;45302;-64
2020/12/20 00:27:49;;;;;;;11.55;9.02;;;;;;;3.25;70.36;101645.97;695130;28;45136;-64
2020/12/20 00:28:11;;;;;;;13.40;9.25;;;;;;;3.28;70.13;101642.25;696298;28;23480;-65
2020/12/20 00:28:32;;;;;;;14.02;9.55;;;;;;;3.24;70.22;101639.78;695341;28;45158;-64
2020/12/20 00:28:54;;;;;;;13.02;9.55;;;;;;;3.25;70.09;101645.97;696455;28;23485;-64
2020/12/20 00:29:15;;;;;;;13.40;9.70;;;;;;;3.28;70.09;101644.91;695262;28;46516;-64
2020/12/20 00:29:37;;;;;;;14.38;9.85;;;;;;;3.24;70.05;101642.47;696253;28;22146;-64
2020/12/20 00:29:59;;;;;;;14.00;9.73;;;;;;;3.23;70.18;101639.91;695104;28;44406;-64
2020/12/20 00:30:21;;;;;;;13.00;9.02;;;;;;;3.22;70.22;101648.84;695349;28;45397;-65
2020/12/20 00:30:42;;;;;;;12.77;9.07;;;;;;;3.23;70.08;101637.22;695957;28;36711;-64
2020/12/20 00:31:03;;;;;;;13.55;9.40;;;;;;;3.25;70.34;101644.16;696304;28;21549;-64
2020/12/20 00:31:24;;;;;;;14.10;9.57;;;;;;;3.26;70.21;101645.03;697736;28;961;-65
2020/12/20 00:31:46;;;;;;;13.38;9.30;;;;;;;3.24;70.20;101645.13;695864;28;23534;-64
2020/12/20 00:32:09;;;;;;;13.07;9.27;;;;;;;3.26;70.20;101642.34;695421;28;46350;-65
2020/12/20 00:32:30;;;;;;;14.05;9.80;;;;;;;3.24;70.39;101642.47;693933;28;67504;-64
2020/12/20 00:32:52;;;;;;;13.68;9.70;;;;;;;3.29;70.06;101641.25;696974;28;1111;-65
2020/12/20 00:33:13;;;;;;;12.45;9.15;;;;;;;3.31;70.05;101650.00;696325;28;19498;-64
2020/12/20 00:33:35;;;;;;;13.07;9.20;;;;;;;3.30;70.00;101651.00;695387;28;21537;-65
2020/12/20 00:33:56;;;;;;;13.07;9.20;;;;;;;3.31;70.11;101637.53;695386;28;45252;-64
2020/12/20 00:34:17;;;;;;;13.38;9.43;;;;;;;3.31;70.11;101639.31;695714;28;22399;-65
2020/12/20 00:34:39;;;;;;;13.13;9.52;;;;;;;3.29;70.11;101644.81;695749;28;22396;-64
2020/12/20 00:35:01;;;;;;;12.85;9.48;;;;;;;3.28;70.27;101643.09;693710;28;69499;-65
2020/12/20 00:35:23;;;;;;;13.23;9.43;;;;;;;3.29;70.16;101643.94;696574;28;21615;-64
2020/12/20 00:35:44;;;;;;;13.77;9.40;;;;;;;3.28;70.20;101642.25;695702;28;44875;-65
2020/12/20 00:36:07;;;;;;;14.02;9.70;;;;;;;3.29;70.13;101641.25;696449;28;22508;-65
2020/12/20 00:36:29;;;;;;;13.93;9.43;;;;;;;3.31;70.15;101644.66;695152;28;68389;-64
2020/12/20 00:36:50;;;;;;;14.23;9.38;;;;;;;3.31;70.11;101637.53;695800;28;46345;-65
2020/12/20 00:37:12;;;;;;;13.23;8.90;;;;;;;3.29;69.86;101633.25;696909;28;22411;-65
2020/12/20 00:37:33;;;;;;;14.02;9.15;;;;;;;3.30;70.02;101643.81;696259;28;46436;-64
2020/12/20 00:37:55;;;;;;;15.65;9.40;;;;;;;3.27;69.91;101633.34;691861;28;21353;-64
2020/12/20 00:38:16;;;;;;;12.68;9.38;;;;;;;3.24;70.06;101642.47;691632;28;44431;-65
2020/12/20 00:38:37;;;;;;;13.13;9.57;;;;;;;3.23;70.24;101643.41;692597;28;21497;-65
2020/12/20 00:38:58;;;;;;;13.93;9.57;;;;;;;3.20;70.25;101645.44;692434;28;21570;-61
2020/12/20 00:39:22;;;;;;;13.32;9.73;;;;;;;3.17;70.33;101640.31;692221;28;21475;-62
2020/12/20 00:39:43;;;;;;;13.38;9.80;;;;;;;3.19;70.39;101633.06;688163;28;62820;-62
2020/12/20 00:40:05;;;;;;;13.95;9.80;;;;;;;3.17;70.38;101635.81;693862;28;22456;-64
2020/12/20 00:40:27;;;;;;;12.80;8.93;;;;;;;3.20;70.25;101637.44;692857;28;46326;-64
2020/12/20 00:40:49;;;;;;;12.48;9.50;;;;;;;3.21;70.08;101640.00;692906;28;46517;-64
2020/12/20 00:41:10;;;;;;;13.80;10.07;;;;;;;3.23;70.20;101646.06;692790;28;46568;-64
2020/12/20 00:41:32;;;;;;;15.50;10.23;;;;;;;3.22;70.31;101641.69;694506;28;22428;-65
2020/12/20 00:41:54;;;;;;;13.82;9.63;;;;;;;3.20;70.23;101646.28;696189;28;36004;-65
2020/12/20 00:42:16;;;;;;;14.02;9.70;;;;;;;3.22;70.12;101640.84;695554;28;69384;-65
2020/12/20 00:42:40;;;;;;;12.88;9.43;;;;;;;3.24;70.12;101639.78;696626;28;23473;-64
2020/12/20 00:43:05;;;;;;;13.98;9.30;;;;;;;3.23;70.27;101642.56;692961;28;113593;-65
2020/12/20 00:43:26;;;;;;;13.05;9.18;;;;;;;3.24;70.33;101638.91;689802;28;91590;-65
2020/12/20 00:43:48;;;;;;;14.13;9.55;;;;;;;3.25;70.17;101640.63;691042;28;21649;-65
2020/12/20 00:44:09;;;;;;;14.68;9.95;;;;;;;3.26;70.10;101642.34;690404;28;45154;-65
2020/12/20 00:44:31;;;;;;;12.90;9.52;;;;;;;3.27;70.15;101640.53;691309;28;22338;-65
2020/12/20 00:44:52;;;;;;;13.95;9.60;;;;;;;3.25;69.98;101638.81;689947;28;45668;-65
2020/12/20 00:45:14;;;;;;;14.15;9.48;;;;;;;3.25;70.00;101644.16;689261;28;21489;-64
2020/12/20 00:45:35;;;;;;;12.18;8.93;;;;;;;3.25;70.03;101643.31;692797;28;46435;-65
2020/12/20 00:45:57;;;;;;;14.15;9.60;;;;;;;3.22;70.21;101644.34;693443;28;22495;-64
2020/12/20 00:46:18;;;;;;;13.65;9.77;;;;;;;3.20;70.22;101640.94;690645;28;32875;-64
2020/12/20 00:46:39;;;;;;;13.75;9.73;;;;;;;3.17;70.36;101640.31;691286;28;9651;-64
2020/12/20 00:47:03;;;;;;;12.77;9.10;;;;;;;3.19;70.32;101644.56;691970;28;12351;-64
2020/12/20 00:47:25;;;;;;;13.35;9.73;;;;;;;3.20;70.23;101646.28;690543;28;92072;-65
2020/12/20 00:47:47;;;;;;;13.77;9.38;;;;;;;3.24;70.29;101647.78;689598;28;46170;-64
2020/12/20 00:48:08;;;;;;;14.63;9.68;;;;;;;3.23;70.11;101650.56;690929;28;46582;-64
2020/12/20 00:48:30;;;;;;;13.35;8.98;;;;;;;3.22;70.27;101646.19;689840;28;44383;-64
2020/12/20 00:48:51;;;;;;;14.75;9.60;;;;;;;3.22;70.26;101649.69;691965;28;3485;-64
2020/12/20 00:49:12;;;;;;;12.98;9.38;;;;;;;3.24;70.14;101647.78;689110;28;21515;-65
2020/12/20 00:49:35;;;;;;;11.77;9.13;;;;;;;3.25;70.20;101645.97;688086;28;46341;-65
2020/12/20 00:49:56;;;;;;;14.65;9.68;;;;;;;3.20;70.02;101637.44;687219;28;44340;-65
2020/12/20 00:50:18;;;;;;;14.73;9.73;;;;;;;3.20;70.07;101637.44;686629;28;46263;-64
2020/12/20 00:50:39;;;;;;;14.60;9.68;;;;;;;3.22;70.24;101644.34;688595;28;21580;-64
2020/12/20 00:51:00;;;;;;;13.43;9.52;;;;;;;3.22;70.17;101647.03;687847;28;21368;-64
2020/12/20 00:51:22;;;;;;;13.68;9.73;;;;;;;3.18;70.16;101648.22;687827;28;45254;-65
2020/12/20 00:51:43;;;;;;;14.15;9.63;;;;;;;3.20;70.18;101646.28;691543;28;22392;-64
2020/12/20 00:52:06;;;;;;;14.73;9.75;;;;;;;3.13;70.46;101641.47;692482;28;46366;-64
2020/12/20 00:52:27;;;;;;;14.40;9.73;;;;;;;3.14;70.43;101641.38;692381;28;46356;-65
2020/12/20 00:52:53;;;;;;;13.98;10.32;;;;;;;3.14;70.62;101646.72;687327;28;136717;-64
2020/12/20 00:53:14;;;;;;;14.45;10.15;;;;;;;3.14;70.47;101643.19;690801;28;22408;-65
2020/12/20 00:53:37;;;;;;;15.20;10.45;;;;;;;3.17;70.52;101640.31;688637;28;22402;-64
2020/12/20 00:53:59;;;;;;;14.52;10.15;;;;;;;3.19;70.37;101641.91;689574;28;15014;-64
2020/12/20 00:54:25;;;;;;;14.15;9.52;;;;;;;3.21;70.08;101640.00;688275;28;38236;-64
2020/12/20 00:54:47;;;;;;;14.00;9.70;;;;;;;3.22;70.24;101644.34;690174;28;36105;-65
2020/12/20 00:55:08;;;;;;;14.55;9.98;;;;;;;3.21;70.24;101642.66;692092;28;46399;-64
2020/12/20 00:55:29;;;;;;;12.95;9.27;;;;;;;3.20;70.35;101645.44;693690;28;13067;-64
2020/12/20 00:55:52;;;;;;;13.52;9.30;;;;;;;3.23;70.29;101639.91;694925;28;17054;-63
2020/12/20 00:56:16;;;;;;;15.90;9.90;;;;;;;3.23;70.27;101639.91;690999;28;38642;-64
2020/12/20 00:56:39;;;;;;;15.02;9.73;;;;;;;3.23;70.16;101639.91;687735;28;69434;-64
2020/12/20 00:57:01;;;;;;;15.45;10.50;;;;;;;3.24;70.17;101638.91;690990;28;24583;-64
2020/12/20 00:57:23;;;;;;;14.77;9.93;;;;;;;3.24;70.15;101646.91;686611;28;46135;-64
2020/12/20 00:57:45;;;;;;;14.55;9.70;;;;;;;3.26;70.16;101637.00;686794;28;42032;-64
2020/12/20 00:58:06;;;;;;;15.87;10.00;;;;;;;3.26;70.07;101639.69;686707;28;20416;-65
2020/12/20 00:58:28;;;;;;;15.52;9.95;;;;;;;3.25;69.94;101641.47;688480;28;38213;-64
2020/12/20 00:58:50;;;;;;;14.93;10.23;;;;;;;3.25;70.00;101636.13;690454;28;21319;-64
2020/12/20 00:59:11;;;;;;;14.52;10.63;;;;;;;3.23;70.13;101639.91;689909;28;46457;-64
2020/12/20 00:59:33;;;;;;;14.43;9.90;;;;;;;3.23;70.21;101643.41;692476;28;44400;-64
2020/12/20 00:59:54;;;;;;;13.77;9.70;;;;;;;3.19;70.22;101633.91;691054;28;19758;-64
2020/12/20 01:00:17;;;;;;;16.73;11.10;;;;;;;3.18;70.14;101634.00;692434;28;45324;-64
2020/12/20 01:00:38;;;;;;;15.40;10.27;;;;;;;3.17;70.24;101640.31;689423;28;46328;-64
2020/12/20 01:01:00;;;;;;;15.98;10.27;;;;;;;3.20;70.25;101646.28;685946;28;46421;-64
2020/12/20 01:01:22;;;;;;;16.05;10.10;;;;;;;3.18;70.29;101640.22;683890;28;22411;-64
2020/12/20 01:01:43;;;;;;;15.13;9.93;;;;;;;3.18;70.34;101648.22;681902;28;33943;-64
2020/12/20 01:02:05;;;;;;;14.73;10.25;;;;;;;3.16;70.34;101636.78;680815;29;45257;-64
2020/12/20 01:02:28;;;;;;;15.15;10.00;;;;;;;3.16;70.44;101643.94;678313;29;69509;-63
2020/12/20 01:02:49;;;;;;;15.50;10.10;;;;;;;3.18;70.32;101647.34;682541;28;21020;-64
2020/12/20 01:03:10;;;;;;;15.02;10.13;;;;;;;3.20;70.15;101646.28;686976;28;9879;-65
2020/12/20 01:03:32;;;;;;;14.73;9.82;;;;;;;3.21;70.16;101650.69;684985;28;46621;-64
2020/12/20 01:03:55;;;;;;;16.77;10.35;;;;;;;3.24;70.12;101644.25;686932;28;42790;-64
2020/12/20 01:04:16;;;;;;;15.82;10.27;;;;;;;3.24;70.09;101649.59;687315;28;69313;-65
2020/12/20 01:04:39;;;;;;;16.98;10.43;;;;;;;3.23;69.96;101648.75;686886;28;67527;-64
2020/12/20 01:05:00;;;;;;;15.70;10.07;;;;;;;3.20;70.17;101645.44;687706;28;22411;-64
2020/12/20 01:05:22;;;;;;;15.50;10.63;;;;;;;3.18;70.18;101652.69;688548;28;45218;-64
2020/12/20 01:05:43;;;;;;;15.98;10.23;;;;;;;3.21;70.31;101644.47;691945;28;22674;-64
2020/12/20 01:06:04;;;;;;;14.93;10.07;;;;;;;3.20;70.32;101642.78;688696;28;10029;-65
2020/12/20 01:06:28;;;;;;;14.73;10.13;;;;;;;3.21;70.11;101644.47;684416;28;92356;-64
2020/12/20 01:07:02;;;;;;;16.23;10.52;;;;;;;3.17;70.28;101646.50;683576;28;110186;-65
2020/12/20 01:07:31;;;;;;;14.77;9.88;;;;;;;3.17;70.26;101646.50;685603;28;138340;-64
2020/12/20 01:07:53;;;;;;;16.65;11.00;;;;;;;3.17;70.25;101646.50;683360;28;138483;-64
2020/12/20 01:08:15;;;;;;;16.30;10.77;;;;;;;3.16;70.26;101647.44;686918;28;44404;-64
2020/12/20 01:08:37;;;;;;;16.45;10.43;;;;;;;3.18;70.30;101640.22;686102;28;44332;-64
2020/12/20 01:09:00;;;;;;;15.65;10.38;;;;;;;3.16;70.21;101639.44;687985;28;21537;-64
2020/12/20 01:09:21;;;;;;;14.65;10.07;;;;;;;3.17;70.22;101648.31;682541;28;66115;-65
2020/12/20 01:09:43;;;;;;;15.82;10.25;;;;;;;3.17;70.15;101643.84;680503;28;44705;-63
2020/12/20 01:10:06;;;;;;;16.38;10.35;;;;;;;3.18;70.13;101640.22;682581;28;44137;-63
2020/12/20 01:10:28;;;;;;;15.25;10.30;;;;;;;3.19;70.05;101649.91;683079;28;51787;-64
2020/12/20 01:10:49;;;;;;;14.88;10.20;;;;;;;3.20;70.04;101643.63;686453;28;1179;-63
2020/12/20 01:11:12;;;;;;;15.35;10.05;;;;;;;3.18;69.94;101642.88;686075;28;41106;-65
2020/12/20 01:11:34;;;;;;;14.85;10.48;;;;;;;3.17;70.12;101645.66;688679;28;45251;-65
2020/12/20 01:11:57;;;;;;;15.25;10.20;;;;;;;3.19;70.14;101649.91;687961;28;45889;-65
2020/12/20 01:12:21;;;;;;;15.05;10.35;;;;;;;3.20;70.13;101656.13;682656;28;132912;-64
2020/12/20 01:12:59;;;;;;;15.18;10.32;;;;;;;3.19;70.02;101662.41;684730;28;136096;-64
2020/12/20 01:13:28;;;;;;;14.32;10.07;;;;;;;3.17;70.08;101649.16;686372;28;137971;-65
2020/12/20 01:13:50;;;;;;;15.15;10.43;;;;;;;3.18;70.07;101652.69;688182;28;46371;-64
2020/12/20 01:14:12;;;;;;;14.90;10.35;;;;;;;3.20;70.13;101661.47;686992;28;68313;-64
2020/12/20 01:14:39;;;;;;;17.02;10.65;;;;;;;3.17;70.02;101651.84;685991;28;160860;-65
2020/12/20 01:15:01;;;;;;;16.17;10.40;;;;;;;3.20;70.03;101658.78;684441;28;46392;-64
2020/12/20 01:15:22;;;;;;;13.48;9.88;;;;;;;3.21;70.05;101653.34;684419;28;22427;-65
2020/12/20 01:15:47;;;;;;;13.93;9.98;;;;;;;3.21;70.03;101653.34;681748;28;114986;-65
2020/12/20 01:16:13;;;;;;;15.18;10.73;;;;;;;3.21;69.96;101655.16;684861;28;44344;-64
2020/12/20 01:16:35;;;;;;;15.02;10.63;;;;;;;3.23;70.03;101661.25;683540;28;136425;-64
2020/12/20 01:16:56;;;;;;;16.70;11.10;;;;;;;3.22;70.11;101663.03;690204;28;3638;-65
2020/12/20 01:17:18;;;;;;;16.40;10.75;;;;;;;3.22;69.92;101657.72;690452;28;44506;-65
2020/12/20 01:17:42;;;;;;;14.98;9.93;;;;;;;3.21;69.96;101658.69;683424;28;115157;-64
2020/12/20 01:18:07;;;;;;;15.40;10.10;;;;;;;3.23;69.92;101658.59;688553;28;92299;-65
2020/12/20 01:18:28;;;;;;;14.65;9.63;;;;;;;3.23;69.86;101667.44;687825;28;44370;-65
2020/12/20 01:18:50;;;;;;;14.48;9.70;;;;;;;3.22;69.85;101667.53;689103;28;22415;-64
2020/12/20 01:19:12;;;;;;;13.10;9.82;;;;;;;3.21;69.86;101669.38;689719;28;22389;-64
2020/12/20 01:19:33;;;;;;;14.50;10.18;;;;;;;3.17;69.94;101662.53;685761;28;46502;-65
2020/12/20 01:19:54;;;;;;;13.13;9.68;;;;;;;3.21;69.89;101666.69;687856;28;46492;-65
2020/12/20 01:20:16;;;;;;;13.07;9.90;;;;;;;3.21;69.94;101668.50;686949;28;17060;-64
2020/12/20 01:20:39;;;;;;;14.10;10.10;;;;;;;3.20;69.73;101662.31;684783;28;22422;-65
2020/12/20 01:21:03;;;;;;;13.77;9.77;;;;;;;3.19;69.78;101662.41;681989;28;92257;-64
2020/12/20 01:21:25;;;;;;;12.77;9.50;;;;;;;3.18;69.91;101671.38;682904;28;90246;-65
2020/12/20 01:21:47;;;;;;;13.20;9.88;;;;;;;3.20;69.95;101667.66;685892;28;1049;-64
2020/12/20 01:22:08;;;;;;;13.65;10.07;;;;;;;3.19;69.90;101671.28;681813;28;46024;-64
2020/12/20 01:22:31;;;;;;;15.32;10.40;;;;;;;3.19;69.77;101675.75;681517;28;15696;-64
2020/12/20 01:22:52;;;;;;;14.68;10.35;;;;;;;3.17;69.88;101667.00;681458;29;23539;-64
2020/12/20 01:23:14;;;;;;;14.00;10.10;;;;;;;3.16;69.83;101670.63;680649;29;45270;-64
2020/12/20 01:23:35;;;;;;;15.93;10.25;;;;;;;3.13;69.87;101662.84;684011;28;22360;-64
2020/12/20 01:23:57;;;;;;;13.63;9.75;;;;;;;3.09;69.78;101656.00;682366;28;66233;-64
2020/12/20 01:24:18;;;;;;;14.07;10.35;;;;;;;3.11;70.08;101665.63;684168;28;21532;-64
2020/12/20 01:24:39;;;;;;;13.63;9.93;;;;;;;3.12;69.95;101656.66;682405;28;46341;-64
2020/12/20 01:25:10;;;;;;;14.45;10.20;;;;;;;3.07;70.18;101661.44;681413;28;138120;-65
2020/12/20 01:25:31;;;;;;;14.10;10.20;;;;;;;3.11;70.21;101662.94;683016;28;69239;-64
2020/12/20 01:26:03;;;;;;;13.13;10.07;;;;;;;3.11;70.09;101660.28;683942;28;137834;-64
2020/12/20 01:26:28;;;;;;;13.55;9.95;;;;;;;3.11;70.05;101662.09;691067;28;23177;-64
2020/12/20 01:26:50;;;;;;;14.45;10.27;;;;;;;3.08;70.18;101655.16;683969;28;136415;-64
2020/12/20 01:27:12;;;;;;;13.07;9.63;;;;;;;3.10;70.12;101657.72;687801;28;44386;-64
2020/12/20 01:27:35;;;;;;;14.13;10.18;;;;;;;3.10;70.09;101660.38;685605;28;68596;-64
2020/12/20 01:27:57;;;;;;;13.57;9.70;;;;;;;3.09;70.11;101659.53;688295;28;42369;-65
2020/12/20 01:28:27;;;;;;;13.98;10.05;;;;;;;3.07;70.13;101656.09;682374;28;137920;-64
2020/12/20 01:28:48;;;;;;;14.80;10.20;;;;;;;3.05;70.22;101658.88;683950;28;46450;-64
2020/12/20 01:29:11;;;;;;;15.40;10.45;;;;;;;3.07;70.13;101658.75;683954;28;44221;-64
2020/12/20 01:29:33;;;;;;;14.32;10.00;;;;;;;3.08;70.07;101656.97;685382;28;44392;-64
2020/12/20 01:29:56;;;;;;;14.02;9.70;;;;;;;3.07;70.08;101666.78;684391;28;67518;-64
2020/12/20 01:30:17;;;;;;;14.82;10.32;;;;;;;3.06;70.17;101652.59;687510;28;22127;-65
2020/12/20 01:30:38;;;;;;;14.55;10.13;;;;;;;3.06;70.16;101657.91;687757;28;46393;-64
2020/12/20 01:31:03;;;;;;;13.60;10.00;;;;;;;3.06;70.17;101654.41;683254;28;1516;-64
2020/12/20 01:31:39;;;;;;;14.77;10.57;;;;;;;3.04;70.10;101654.50;686802;28;138294;-64
2020/12/20 01:32:07;;;;;;;14.73;10.40;;;;;;;3.04;70.23;101657.19;686824;28;138027;-64
2020/12/20 01:32:31;;;;;;;13.52;10.27;;;;;;;2.99;70.43;101653.94;687801;28;87643;-64
2020/12/20 01:33:01;;;;;;;13.70;10.00;;;;;;;2.92;70.64;101650.00;683844;28;127881;-64
2020/12/20 01:33:22;;;;;;;12.95;10.48;;;;;;;2.92;70.71;101647.34;685725;28;21006;-64
2020/12/20 01:34:03;;;;;;;15.70;10.45;;;;;;;2.96;70.80;101645.31;679438;28;156480;-64
2020/12/20 01:34:25;;;;;;;14.15;10.35;;;;;;;2.95;70.69;101640.94;685035;28;23392;-64
2020/12/20 01:34:47;;;;;;;14.00;10.55;;;;;;;2.94;70.97;101656.09;687120;28;45243;-64
2020/12/20 01:35:10;;;;;;;12.70;10.25;;;;;;;2.93;70.79;101645.53;690110;28;46650;-63
2020/12/20 01:35:32;;;;;;;13.30;9.88;;;;;;;2.89;70.83;101648.41;687842;28;69424;-64
2020/12/20 01:35:53;;;;;;;15.45;10.43;;;;;;;2.89;70.99;101643.06;685493;28;22388;-64
2020/12/20 01:36:15;;;;;;;14.80;10.45;;;;;;;2.91;70.87;101644.78;685837;28;46369;-63
2020/12/20 01:36:42;;;;;;;14.23;10.10;;;;;;;2.90;70.88;101646.59;683532;28;137697;-64
2020/12/20 01:37:03;;;;;;;15.70;10.60;;;;;;;2.89;70.89;101648.41;687746;28;21561;-64
2020/12/20 01:37:31;;;;;;;16.83;10.50;;;;;;;2.88;71.06;101646.72;683555;28;138137;-64
2020/12/20 01:37:53;;;;;;;15.98;10.57;;;;;;;2.91;70.83;101645.63;689023;28;67525;-64
2020/12/20 01:38:14;;;;;;;12.90;10.32;;;;;;;2.94;70.86;101645.41;685874;28;46093;-64
2020/12/20 01:38:36;;;;;;;13.52;10.10;;;;;;;2.91;70.91;101650.13;687010;28;22458;-64
2020/12/20 01:38:58;;;;;;;15.68;10.45;;;;;;;2.89;71.04;101645.72;683752;28;44378;-64
2020/12/20 01:39:19;;;;;;;17.02;10.48;;;;;;;2.88;70.86;101641.38;683304;28;21583;-64
2020/12/20 01:39:41;;;;;;;14.52;9.93;;;;;;;2.92;70.89;101650.00;682403;28;46322;-64
2020/12/20 01:40:04;;;;;;;14.52;10.60;;;;;;;2.88;70.72;101641.38;687090;28;22138;-64
2020/12/20 01:40:25;;;;;;;14.98;10.80;;;;;;;2.94;70.77;101653.41;686718;28;92096;-64
2020/12/20 01:40:51;;;;;;;15.05;10.63;;;;;;;2.96;70.54;101648.84;686121;28;23301;-64
2020/12/20 01:41:13;;;;;;;14.32;10.38;;;;;;;2.98;70.59;101652.25;682422;28;138447;-64
2020/12/20 01:41:36;;;;;;;13.80;10.07;;;;;;;2.98;70.65;101646.91;688322;28;942;-64
2020/12/20 01:41:58;;;;;;;14.82;10.73;;;;;;;2.98;70.46;101646.03;684453;28;83950;-64
2020/12/20 01:42:28;;;;;;;15.23;10.85;;;;;;;2.97;70.49;101657.69;685237;28;138631;-64
2020/12/20 01:42:53;;;;;;;15.38;10.57;;;;;;;2.97;70.44;101647.03;692730;28;9578;-64
2020/12/20 01:43:19;;;;;;;13.57;10.43;;;;;;;2.96;70.57;101655.97;686436;28;138192;-63
2020/12/20 01:43:42;;;;;;;15.05;10.50;;;;;;;2.95;70.54;101649.81;689795;28;22436;-64
2020/12/20 01:44:03;;;;;;;15.40;10.65;;;;;;;2.96;70.56;101653.31;689378;28;57706;-64
2020/12/20 01:44:33;;;;;;;14.57;10.65;;;;;;;2.95;70.57;101651.63;685363;28;133016;-64
2020/12/20 01:44:55;;;;;;;14.13;10.55;;;;;;;2.93;70.56;101653.53;687790;28;44373;-63
2020/12/20 01:45:20;;;;;;;14.15;10.48;;;;;;;2.95;70.71;101657.81;685188;28;136782;-64